createdAt,value
2023-02-19T00:02:45.000Z,98444.48
2023-02-19T00:13:09.952Z,98453.14
2023-02-19T00:23:35.046Z,98442.75
2023-02-19T00:34:01.657Z,98434.79
2023-02-19T00:44:26.448Z,98438.42
2023-02-19T00:54:51.412Z,98432.21
2023-02-19T01:05:16.267Z,98425.45
2023-02-19T01:15:41.135Z,98414.88
2023-02-19T01:26:08.472Z,98409.02
2023-02-19T01:36:34.414Z,98391.56
2023-02-19T01:46:58.608Z,98382.52
2023-02-19T01:57:28.416Z,98372.94
2023-02-19T02:08:10.995Z,98365.33
2023-02-19T02:18:47.134Z,98348.83
2023-02-19T02:29:31.626Z,98340.37
2023-02-19T02:39:59.383Z,98333.35
2023-02-19T02:50:29.332Z,98325.59
2023-02-19T03:01:15.883Z,98313.23
2023-02-19T03:12:02.882Z,98293.97
2023-02-19T03:22:30.800Z,98282.62
2023-02-19T03:32:58.639Z,98285.82
2023-02-19T03:43:30.600Z,98295.34
2023-02-19T03:54:11.528Z,98285.15
2023-02-19T04:04:39.609Z,98280.45
2023-02-19T04:15:10.149Z,98271.27
2023-02-19T04:25:37.122Z,98263.80
2023-02-19T04:36:01.821Z,98255.12
2023-02-19T04:46:26.057Z,98250.12
2023-02-19T04:56:50.533Z,98241.39
2023-02-19T05:07:14.772Z,98213.63
2023-02-19T05:17:38.996Z,98187.14
2023-02-19T05:28:16.881Z,98166.48
2023-02-19T05:38:41.724Z,98172.79
2023-02-19T05:49:06.166Z,98160.22
2023-02-19T05:59:30.373Z,98162.70
2023-02-19T06:09:55.558Z,98162.23
2023-02-19T06:20:20.059Z,98162.05
2023-02-19T06:30:44.264Z,98180.67
2023-02-19T06:41:10.067Z,98184.78
2023-02-19T06:51:34.824Z,98182.89
2023-02-19T07:01:59.208Z,98182.61
2023-02-19T07:12:23.615Z,98176.08
2023-02-19T07:22:48.441Z,98172.74
2023-02-19T07:33:13.311Z,98152.74
2023-02-19T07:43:39.408Z,98145.55
2023-02-19T07:54:04.704Z,98135.73
2023-02-19T08:04:29.758Z,98133.06
2023-02-19T08:14:54.610Z,98118.95
2023-02-19T08:25:19.378Z,98118.21
2023-02-19T08:35:44.895Z,98122.81
2023-02-19T08:46:11.314Z,98128.85
2023-02-19T08:56:35.657Z,98138.26
2023-02-19T09:07:00.599Z,98140.00
2023-02-19T09:17:25.409Z,98144.91
2023-02-19T09:27:50.306Z,98153.64
2023-02-19T09:38:15.090Z,98158.40
2023-02-19T09:48:40.127Z,98167.55
2023-02-19T09:59:06.029Z,98181.97
2023-02-19T10:09:31.983Z,98188.73
2023-02-19T10:19:57.449Z,98200.49
2023-02-19T10:30:27.734Z,98212.31
2023-02-19T10:40:57.754Z,98230.73
2023-02-19T10:51:30.415Z,98239.04
2023-02-19T11:01:56.850Z,98257.73
2023-02-19T11:12:26.858Z,98286.85
2023-02-19T11:22:51.374Z,98293.24
2023-02-19T11:33:26.979Z,98303.09
2023-02-19T11:44:03.761Z,98334.91
2023-02-19T11:54:43.172Z,98362.60
2023-02-19T12:05:19.521Z,98378.70
2023-02-19T12:16:00.746Z,98390.30
2023-02-19T12:26:29.543Z,98407.08
2023-02-19T12:37:06.085Z,98418.32
2023-02-19T12:47:35.106Z,98432.29
2023-02-19T12:58:04.360Z,98450.91
2023-02-19T13:08:36.602Z,98460.52
2023-02-19T13:19:03.838Z,98478.08
2023-02-19T13:29:41.993Z,98496.29
2023-02-19T13:40:19.279Z,98523.58
2023-02-19T13:50:43.591Z,98544.04
2023-02-19T14:01:09.921Z,98559.05
2023-02-19T14:12:05.876Z,98579.27
2023-02-19T14:23:05.090Z,98600.06
2023-02-19T14:33:31.154Z,98629.67
2023-02-19T14:43:58.446Z,98636.34
2023-02-19T14:54:35.636Z,98639.06
2023-02-19T15:05:00.033Z,98643.95
2023-02-19T15:15:29.514Z,98665.00
2023-02-19T15:25:53.957Z,98671.32
2023-02-19T15:36:27.132Z,98680.11
2023-02-19T15:46:52.012Z,98693.83
2023-02-19T15:57:21.823Z,98725.91
2023-02-19T16:07:46.062Z,98752.63
2023-02-19T16:18:14.989Z,98766.30
2023-02-19T16:28:40.998Z,98789.18
2023-02-19T16:39:18.469Z,98815.41
2023-02-19T16:49:43.627Z,98843.12
2023-02-19T17:00:09.346Z,98876.30
2023-02-19T17:10:33.604Z,98897.46
2023-02-19T17:21:02.012Z,98913.64
2023-02-19T17:31:25.604Z,98921.03
2023-02-19T17:41:50.090Z,98930.01
2023-02-19T17:52:17.026Z,98955.52
2023-02-19T18:02:41.434Z,98975.33
2023-02-19T18:13:05.718Z,98988.40
2023-02-19T18:23:30.089Z,99009.58
2023-02-19T18:33:54.293Z,99026.86
2023-02-19T18:44:20.209Z,99035.31
2023-02-19T18:54:44.536Z,99037.27
2023-02-19T19:05:09.062Z,99048.81
2023-02-19T19:15:41.768Z,99062.89
2023-02-19T19:26:06.741Z,99073.88
2023-02-19T19:36:31.102Z,99079.43
2023-02-19T19:46:55.761Z,99093.48
2023-02-19T19:57:20.218Z,99105.55
2023-02-19T20:07:44.851Z,99101.80
2023-02-19T20:18:09.109Z,99098.23
2023-02-19T20:28:33.462Z,99106.13
2023-02-19T20:38:57.843Z,99116.23
2023-02-19T20:49:24.257Z,99134.42
2023-02-19T20:59:48.486Z,99146.55
2023-02-19T21:10:13.150Z,99154.10
2023-02-19T21:20:37.379Z,99175.05
2023-02-19T21:31:02.248Z,99190.47
2023-02-19T21:41:26.890Z,99205.05
2023-02-19T21:51:51.752Z,99215.41
2023-02-19T22:02:19.211Z,99216.91
2023-02-19T22:12:43.615Z,99223.35
2023-02-19T22:23:08.393Z,99233.66
2023-02-19T22:33:33.216Z,99239.06
2023-02-19T22:43:58.871Z,99250.31
2023-02-19T22:54:26.378Z,99255.59
2023-02-19T23:04:51.440Z,99259.96
2023-02-19T23:15:15.747Z,99277.04
2023-02-19T23:25:39.923Z,99293.78
2023-02-19T23:36:04.701Z,99290.60
2023-02-19T23:46:29.014Z,99296.84
2023-02-19T23:56:53.317Z,99284.61
